Wan Hai 273 — 9V7586 — position and weather

sailwx.info

Track history (hours):
 
Tides and Currents Weather Stations Pressure Air Temp Water Temp Dewpoint Dewpoint Depression Visibility Wind Speed Wind Dir Waves Ship Positions

Wan Hai 273

Last reported at 2015-Aug-29 05:32 UTC. Time now 2015-Aug-30 18:04 UTC.
Position N 16°10' E 108°12'.

Length 172 m; draft 8.8 m.

Type: Cargo ship. MMSI: 566406000.

Date/timePositionNaut miles runAvg speedWind from/ knotsBaromVisibWave heightAir tempDewpointWater temp
2015-Aug-29 05:32N 16°10' E 108°12'0 0.1
2015-Aug-29 04:32N 16°10' E 108°12'0 0.1
2015-Aug-29 03:32N 16°10' E 108°12'0 0.1
2015-Aug-29 02:33N 16°10' E 108°12'2 1.5
2015-Aug-29 01:33N 16°11' E 108°13'1413.7
2015-Aug-29 00:33N 16°20' E 108°23'48316.7
2015-Aug-27 19:33N 22°06' E 114°21'1713.6
2015-Aug-27 18:17N 22°16' E 114°06'810.8
2015-Aug-27 17:31N 22°21' E 113°59'8 1.0
2015-Aug-27 09:29N 22°28' E 113°54'0 0.0
2015-Aug-27 08:29N 22°28' E 113°54'2 2.5
2015-Aug-27 07:33N 22°25' E 113°53'12 8.1
2015-Aug-27 06:04N 22°20' E 114°05'3 6.0
2015-Aug-27 05:32N 22°17' E 114°05'0 0.0
2015-Aug-27 04:20N 22°17' E 114°05'0 0.0
2015-Aug-27 03:32N 22°17' E 114°05'0 0.0
2015-Aug-27 02:29N 22°17' E 114°05'0 0.0
2015-Aug-27 01:29N 22°17' E 114°05'0 0.0
2015-Aug-27 00:32N 22°17' E 114°05'0 0.1
2015-Aug-26 23:32N 22°17' E 114°06'0 0.1
2015-Aug-26 22:26N 22°17' E 114°05'0 0.0
2015-Aug-26 21:20N 22°17' E 114°05'0 0.1
2015-Aug-26 20:32N 22°17' E 114°05'0 0.0
2015-Aug-26 19:32N 22°17' E 114°05'0 0.1
2015-Aug-26 18:32N 22°17' E 114°05'3 3.4
2015-Aug-26 17:32N 22°20' E 114°08'0 0.0
2015-Aug-26 16:32N 22°20' E 114°08'0 0.0
2015-Aug-26 15:29N 22°20' E 114°08'0 0.0
2015-Aug-26 14:32N 22°20' E 114°08'0 0.0
2015-Aug-26 13:32N 22°20' E 114°08'0 0.0
2015-Aug-26 12:34N 22°20' E 114°08'0 0.0
2015-Aug-26 11:24N 22°20' E 114°08'0 0.0
2015-Aug-26 10:30N 22°20' E 114°08'0 0.1
2015-Aug-26 09:33N 22°20' E 114°08'0 0.0
2015-Aug-26 08:28N 22°20' E 114°08'0 0.0
2015-Aug-26 07:34N 22°20' E 114°08'0 0.0
2015-Aug-26 06:34N 22°20' E 114°08'0 0.0
2015-Aug-26 05:28N 22°20' E 114°08'2 2.1
2015-Aug-26 04:34N 22°19' E 114°06'12 8.2
2015-Aug-26 03:07N 22°09' E 114°14'5 9.1
2015-Aug-26 02:34N 22°09' E 114°19'10 9.9
2015-Aug-26 01:33N 22°10' E 114°30'22915.3
2015-Aug-25 10:31N 23°38' E 118°20'1716.2
2015-Aug-25 09:28N 23°51' E 118°32'1516.2
2015-Aug-25 08:33N 24°01' E 118°43'1916.4
2015-Aug-25 07:22N 24°16' E 118°57'1816.4
2015-Aug-25 06:17N 24°29' E 119°11'40617.0
2015-Aug-24 06:25N 30°21' E 122°59'  
Track history (hours):
 
Tides and Currents Weather Stations Pressure Air Temp Water Temp Dewpoint Dewpoint Depression Visibility Wind Speed Wind Dir Waves Ship Positions

Wan Hai 273

Last reported at 2015-Aug-29 05:32 UTC. Time now 2015-Aug-30 18:04 UTC.
Position N 16°10' E 108°12'.

Length 172 m; draft 8.8 m.

Type: Cargo ship. MMSI: 566406000.

Date/timePositionNaut miles runAvg speedWind from/ knotsBaromVisibWave heightAir tempDewpointWater temp
2015-Aug-29 05:32N 16°10' E 108°12'0 0.1
2015-Aug-29 04:32N 16°10' E 108°12'0 0.1
2015-Aug-29 03:32N 16°10' E 108°12'0 0.1
2015-Aug-29 02:33N 16°10' E 108°12'2 1.5
2015-Aug-29 01:33N 16°11' E 108°13'1413.7
2015-Aug-29 00:33N 16°20' E 108°23'48316.7
2015-Aug-27 19:33N 22°06' E 114°21'1713.6
2015-Aug-27 18:17N 22°16' E 114°06'810.8
2015-Aug-27 17:31N 22°21' E 113°59'8 1.0
2015-Aug-27 09:29N 22°28' E 113°54'0 0.0
2015-Aug-27 08:29N 22°28' E 113°54'2 2.5
2015-Aug-27 07:33N 22°25' E 113°53'12 8.1
2015-Aug-27 06:04N 22°20' E 114°05'3 6.0
2015-Aug-27 05:32N 22°17' E 114°05'0 0.0
2015-Aug-27 04:20N 22°17' E 114°05'0 0.0
2015-Aug-27 03:32N 22°17' E 114°05'0 0.0
2015-Aug-27 02:29N 22°17' E 114°05'0 0.0
2015-Aug-27 01:29N 22°17' E 114°05'0 0.0
2015-Aug-27 00:32N 22°17' E 114°05'0 0.1
2015-Aug-26 23:32N 22°17' E 114°06'0 0.1
2015-Aug-26 22:26N 22°17' E 114°05'0 0.0
2015-Aug-26 21:20N 22°17' E 114°05'0 0.1
2015-Aug-26 20:32N 22°17' E 114°05'0 0.0
2015-Aug-26 19:32N 22°17' E 114°05'0 0.1
2015-Aug-26 18:32N 22°17' E 114°05'3 3.4
2015-Aug-26 17:32N 22°20' E 114°08'0 0.0
2015-Aug-26 16:32N 22°20' E 114°08'0 0.0
2015-Aug-26 15:29N 22°20' E 114°08'0 0.0
2015-Aug-26 14:32N 22°20' E 114°08'0 0.0
2015-Aug-26 13:32N 22°20' E 114°08'0 0.0
2015-Aug-26 12:34N 22°20' E 114°08'0 0.0
2015-Aug-26 11:24N 22°20' E 114°08'0 0.0
2015-Aug-26 10:30N 22°20' E 114°08'0 0.1
2015-Aug-26 09:33N 22°20' E 114°08'0 0.0
2015-Aug-26 08:28N 22°20' E 114°08'0 0.0
2015-Aug-26 07:34N 22°20' E 114°08'0 0.0
2015-Aug-26 06:34N 22°20' E 114°08'0 0.0
2015-Aug-26 05:28N 22°20' E 114°08'2 2.1
2015-Aug-26 04:34N 22°19' E 114°06'12 8.2
2015-Aug-26 03:07N 22°09' E 114°14'5 9.1
2015-Aug-26 02:34N 22°09' E 114°19'10 9.9
2015-Aug-26 01:33N 22°10' E 114°30'22915.3
2015-Aug-25 10:31N 23°38' E 118°20'1716.2
2015-Aug-25 09:28N 23°51' E 118°32'1516.2
2015-Aug-25 08:33N 24°01' E 118°43'1916.4
2015-Aug-25 07:22N 24°16' E 118°57'1816.4
2015-Aug-25 06:17N 24°29' E 119°11'40617.0
2015-Aug-24 06:25N 30°21' E 122°59'  

Dump ship's entire track history